Latest Weather Observations for Jabiru

IDD60801

Issued at 9:05 pm CST Thursday 17 April 2014 (issued every 30 minutes, with the page automatically refreshed every 10 minutes)

About weather observations | Map of weather stations | Latest weather observations for NT | Other Formats
Station Details ID: 014198 Name: JABIRU AIRPORT Lat: -12.66 Lon: 132.89 Height: 26.5 m
Data from the previous 72 hours. | See also: Recent months at Jabiru
Date/Time
CST
Temp
°C
App
Temp
°C
Dew
Point
Rel
Hum
%
Delta-T
°C
Wind Press
QNH
hPa
Press
MSL
hPa
Rain
since 9 am
mm
Dir
 
Spd
km/h
Gust
km/h
Spd
kts
Gust
kts
17/09:00pm 27.3 30.1 22.3 74 3.4 SE 11 17 6 9 1011.3 1011.1 0.0
17/08:30pm 27.7 29.3 22.2 72 3.7 SE 17 26 9 14 1011.6 - 0.0
17/08:00pm 28.3 29.3 22.1 69 4.2 E 20 33 11 18 1011.5 - 0.0
17/07:30pm 30.0 30.9 21.9 62 5.5 ESE 20 32 11 17 1010.8 - 0.0
17/07:00pm 30.9 34.3 21.7 58 6.2 N 6 7 3 4 1009.6 - 0.0
17/06:30pm 31.9 35.0 21.4 53 7.1 NNW 7 9 4 5 1009.1 - 0.0
17/06:00pm 33.0 35.1 20.9 49 8.1 NNW 11 13 6 7 1008.8 1008.6 0.0
17/05:30pm 34.0 35.8 20.4 45 9.1 NNW 11 17 6 9 1008.2 - 0.0
17/05:00pm 34.3 36.5 19.5 41 9.8 NNW 7 11 4 6 1008.0 - 0.0
17/04:30pm 34.6 36.5 19.8 41 9.8 N 9 15 5 8 1007.8 - 0.0
17/04:00pm 34.7 36.5 19.5 40 10.1 NW 9 15 5 8 1007.6 - 0.0
17/03:30pm 33.9 35.0 18.8 41 9.9 NE 11 19 6 10 1007.7 - 0.0
17/03:00pm 34.1 35.8 18.6 40 10.1 ENE 7 13 4 7 1008.2 1008.0 0.0
17/02:30pm 34.2 36.1 19.8 42 9.6 ENE 9 17 5 9 1008.5 - 0.0
17/02:00pm 33.8 35.8 19.1 42 9.7 ENE 7 17 4 9 1008.8 - 0.0
17/01:30pm 33.3 35.4 19.4 44 9.2 ENE 7 13 4 7 1009.2 - 0.0
17/01:00pm 33.3 34.3 18.6 41 9.6 ESE 11 22 6 12 1009.5 - 0.0
17/12:30pm 32.7 33.8 18.8 43 9.1 ENE 11 20 6 11 1010.1 - 0.0
17/12:00pm 32.3 33.5 19.9 48 8.2 N 13 19 7 10 1010.5 1010.3 0.0
17/11:30am 32.9 34.5 20.8 49 8.1 NNE 13 19 7 10 1010.9 - 0.0
17/11:00am 31.6 34.2 21.2 54 7.0 E 9 15 5 8 1011.3 - 0.0
17/10:30am 31.4 34.6 22.4 59 6.1 ENE 9 17 5 9 1011.6 - 0.0
17/10:00am 30.0 32.9 22.4 63 5.2 E 11 15 6 8 1011.9 - 0.0
17/09:30am 30.3 33.8 23.5 67 4.7 ENE 11 20 6 11 1011.9 - 0.0
17/09:00am 29.8 34.1 24.2 72 3.9 ENE 9 13 5 7 1011.7 1011.5 0.0
17/08:30am 28.7 32.8 24.5 78 2.9 E 11 15 6 8 1011.6 - 0.0
17/08:00am 27.8 32.7 24.6 83 2.2 ENE 7 9 4 5 1011.5 - 0.0
17/07:30am 26.5 32.5 24.3 88 1.5 CALM 0 0 0 0 1011.1 - 0.0
17/07:00am 25.1 30.9 23.9 93 0.8 CALM 0 0 0 0 1010.7 - 0.0
17/06:30am 25.2 29.8 23.8 92 1.0 SSW 6 7 3 4 1010.5 - 0.0
17/06:00am 25.3 31.1 23.9 92 1.0 SW 0 4 0 2 1010.1 1009.9 0.0
17/05:30am 25.7 31.6 24.1 91 1.1 CALM 0 0 0 0 1009.7 - 0.0
17/05:00am 25.7 31.5 23.9 90 1.2 ESE 0 2 0 1 1009.6 - 0.0
17/04:30am 26.1 31.4 24.3 90 1.2 ESE 4 6 2 3 1009.4 - 0.0
17/04:00am 26.3 31.5 24.2 88 1.4 ESE 4 6 2 3 1009.5 - 0.0
17/03:30am 26.2 30.8 24.2 89 1.4 ESE 7 7 4 4 1009.6 - 0.0
17/03:00am 26.4 31.8 23.9 86 1.7 E 2 7 1 4 1009.7 1009.5 0.0
17/02:30am 26.4 31.2 24.1 87 1.6 E 6 7 3 4 1009.9 - 0.0
17/02:00am 26.5 31.0 24.0 86 1.7 ENE 7 7 4 4 1010.1 - 0.0
17/01:30am 26.7 31.4 24.0 85 1.9 E 6 7 3 4 1010.3 - 0.0
17/01:00am 27.0 31.6 24.1 84 2.0 E 7 9 4 5 1010.5 - 0.0
17/12:30am 27.5 32.8 23.7 80 2.6 N 2 6 1 3 1010.7 - 0.0
17/12:00am 28.4 33.4 23.8 76 3.2 NW 4 6 2 3 1010.7 1010.5 0.0
 
Date/Time
CST
Temp
°C
App
Temp
°C
Dew
Point
Rel
Hum
%
Delta-T
°C
Wind Press
QNH
hPa
Press
MSL
hPa
Rain
since 9 am
mm
Dir
 
Spd
km/h
Gust
km/h
Spd
kts
Gust
kts
16/11:30pm 28.4 33.0 23.8 76 3.2 NW 6 7 3 4 1010.8 - 0.0
16/11:00pm 28.6 33.0 23.5 74 3.5 NNW 6 7 3 4 1010.7 - 0.0
16/10:30pm 29.0 32.4 23.4 72 3.8 N 11 15 6 8 1010.4 - 0.0
16/10:00pm 28.9 32.3 23.3 72 3.8 N 11 15 6 8 1010.5 - 0.0
16/09:30pm 28.9 32.3 23.3 72 3.8 N 11 17 6 9 1010.3 - 0.0
16/09:00pm 29.1 32.8 23.3 71 4.0 N 9 15 5 8 1009.9 1009.7 0.0
16/08:30pm 29.0 32.7 23.9 74 3.5 NNE 11 15 6 8 1009.5 - 0.0
16/08:00pm 29.9 33.5 22.3 63 5.2 SSW 7 7 4 4 1008.9 - 0.0
16/07:30pm 30.5 33.8 21.8 59 5.9 WSW 7 9 4 5 1008.5 - 0.0
16/07:00pm 30.9 34.7 22.8 62 5.5 W 7 11 4 6 1008.2 - 0.0
16/06:30pm 32.4 35.6 21.6 53 7.3 NNW 7 9 4 5 1008.0 - 0.0
16/06:00pm 33.5 35.8 19.9 44 9.0 NW 7 9 4 5 1007.7 1007.5 0.0
16/05:30pm 34.4 36.1 18.4 38 10.4 NW 7 9 4 5 1007.4 - 0.0
16/05:00pm 35.1 36.8 18.6 37 10.8 WNW 7 11 4 6 1007.2 - 0.0
16/04:30pm 35.2 36.8 19.1 38 10.6 W 9 13 5 7 1007.2 - 0.0
16/04:00pm 35.1 36.9 19.5 40 10.3 SW 9 13 5 7 1007.2 - 0.0
16/03:30pm 34.5 36.2 19.3 40 10.0 SW 9 15 5 8 1007.4 - 0.0
16/03:00pm 33.7 35.6 18.6 40 9.9 E 6 9 3 5 1007.7 1007.5 0.0
16/02:30pm 34.4 36.2 18.8 39 10.2 SSW 7 13 4 7 1007.9 - 0.0
16/02:00pm 34.1 36.2 19.4 42 9.7 N 7 13 4 7 1008.3 - 0.0
16/01:30pm 33.7 36.3 20.5 46 8.8 SSE 7 13 4 7 1008.6 - 0.0
16/01:00pm 34.4 36.6 20.4 44 9.4 ESE 9 13 5 7 1008.9 - 0.0
16/12:30pm 33.2 34.9 18.5 41 9.6 E 7 11 4 6 1009.4 - 0.0
16/12:00pm 32.8 36.0 21.3 50 7.8 WSW 6 11 3 6 1010.0 1009.8 0.0
16/11:30am 32.6 34.8 19.5 46 8.6 E 7 11 4 6 1010.6 - 0.0
16/11:00am 31.8 35.0 21.6 54 6.9 NW 7 17 4 9 1011.2 - 0.0
16/10:30am 31.2 34.5 22.5 60 5.9 WSW 9 13 5 7 1011.6 - 0.0
16/10:00am 31.1 35.7 22.4 60 5.9 E 2 7 1 4 1011.7 - 0.0
16/09:30am 30.3 34.6 23.7 68 4.6 ENE 7 11 4 6 1011.7 - 0.0
16/09:00am 29.1 34.0 23.1 70 4.1 W 2 7 1 4 1011.7 1011.5 0.0
16/08:30am 28.6 34.2 23.5 74 3.5 CALM 0 0 0 0 1011.7 - 0.0
16/08:00am 27.0 32.8 23.9 83 2.1 CALM 0 0 0 0 1011.7 - 0.0
16/07:30am 25.6 31.3 23.8 90 1.2 CALM 0 0 0 0 1011.4 - 0.0
16/07:00am 25.1 30.9 23.9 93 0.8 CALM 0 0 0 0 1011.1 - 0.0
16/06:30am 25.0 30.7 23.8 93 0.8 CALM 0 0 0 0 1010.8 - 0.0
16/06:00am 25.1 30.8 23.7 92 1.0 CALM 0 0 0 0 1010.7 1010.5 0.0
16/05:30am 25.5 30.6 24.1 92 1.0 W 4 6 2 3 1010.6 - 0.0
16/05:00am 25.4 30.0 23.8 91 1.1 ENE 6 7 3 4 1010.6 - 0.0
16/04:30am 25.7 31.5 23.9 90 1.2 CALM 0 0 0 0 1010.4 - 0.0
16/04:00am 25.9 30.5 23.8 88 1.4 SSW 6 7 3 4 1010.0 - 0.0
16/03:30am 26.1 30.5 23.8 87 1.6 S 7 9 4 5 1009.9 - 0.0
16/03:00am 26.2 30.8 24.1 88 1.4 S 7 7 4 4 1010.0 1009.8 0.0
16/02:30am 26.5 31.4 24.3 88 1.5 SSW 6 7 3 4 1010.2 - 0.0
16/02:00am 26.6 31.5 24.4 88 1.5 SSW 6 9 3 5 1010.4 - 0.0
16/01:30am 26.7 31.5 24.2 86 1.7 S 6 7 3 4 1010.6 - 0.0
16/01:00am 27.0 32.0 24.5 86 1.7 WSW 6 7 3 4 1010.8 - 0.0
16/12:30am 27.0 31.9 24.3 85 1.9 SW 6 7 3 4 1010.9 - 0.0
16/12:00am 27.2 31.9 24.3 84 2.0 SW 7 9 4 5 1011.1 1010.9 0.0
 
Date/Time
CST
Temp
°C
App
Temp
°C
Dew
Point
Rel
Hum
%
Delta-T
°C
Wind Press
QNH
hPa
Press
MSL
hPa
Rain
since 9 am
mm
Dir
 
Spd
km/h
Gust
km/h
Spd
kts
Gust
kts
15/11:30pm 27.6 32.8 24.2 82 2.4 N 4 6 2 3 1011.1 - 0.0
15/11:00pm 27.6 32.0 23.8 80 2.6 N 7 9 4 5 1011.1 - 0.0
15/10:30pm 27.8 31.7 23.6 78 2.9 NNW 9 11 5 6 1011.0 - 0.0
15/10:00pm 27.9 32.1 23.5 77 3.0 NNW 7 9 4 5 1011.0 - 0.0
15/09:30pm 28.1 32.0 23.0 74 3.5 NW 7 9 4 5 1010.8 - 0.0
15/09:00pm 28.7 32.5 22.4 68 4.3 WNW 6 9 3 5 1010.6 1010.4 0.0
15/08:30pm 29.1 32.8 22.6 68 4.4 WNW 7 9 4 5 1010.3 - 0.0
15/08:00pm 29.6 33.4 22.8 67 4.6 WNW 7 9 4 5 1009.9 - 0.0
15/07:30pm 30.3 33.5 21.7 60 5.8 NNW 7 9 4 5 1009.5 - 0.0
15/07:00pm 29.8 34.2 23.5 69 4.3 N 6 13 3 7 1009.0 - 0.0
15/06:30pm 31.4 35.2 22.4 59 6.1 N 6 6 3 3 1008.5 - 0.0
15/06:00pm 32.6 35.4 20.5 49 8.1 N 6 7 3 4 1008.3 1008.1 0.0
15/05:30pm 32.8 34.2 17.8 40 9.7 NE 7 9 4 5 1008.1 - 0.0
15/05:00pm 32.9 34.8 19.7 45 8.7 NE 9 11 5 6 1008.0 - 0.0
15/04:30pm 33.5 34.5 16.8 36 10.6 E 7 11 4 6 1008.1 - 0.0
15/04:00pm 33.9 34.8 16.7 35 10.9 NNE 7 9 4 5 1008.0 - 0.0
15/03:30pm 34.4 35.0 16.7 34 11.3 NE 9 15 5 8 1008.1 - 0.0
15/03:00pm 35.0 35.8 17.2 34 11.5 E 9 20 5 11 1008.1 1007.9 0.0
15/02:30pm 34.3 35.0 17.1 36 11.0 ENE 9 20 5 11 1008.4 - 0.0
15/02:00pm 34.0 34.4 16.4 35 11.1 E 9 15 5 8 1008.7 - 0.0
15/01:30pm 33.7 33.8 16.5 35 10.9 NE 11 22 6 12 1009.2 - 0.0
15/01:00pm 33.1 32.6 16.0 35 10.7 E 13 22 7 12 1009.8 - 0.0
15/12:30pm 32.9 32.5 16.3 37 10.5 ESE 13 22 7 12 1010.3 - 0.0
15/12:00pm 32.7 32.4 16.5 37 10.2 ESE 13 20 7 11 1010.8 1010.6 0.0
15/11:30am 32.2 33.2 17.7 42 9.3 ESE 9 17 5 9 1011.4 - 0.0
15/11:00am 31.3 31.0 16.5 41 9.3 ESE 13 26 7 14 1012.0 - 0.0
15/10:30am 30.7 31.2 18.4 47 7.9 E 13 17 7 9 1012.1 - 0.0
15/10:00am 29.7 30.5 19.1 53 6.9 E 13 17 7 9 1012.1 - 0.0
15/09:30am 29.2 30.7 20.6 59 5.7 E 13 20 7 11 1012.1 - 0.0
15/09:00am 28.3 31.6 21.8 68 4.4 ENE 7 11 4 6 1012.0 1011.8 0.8
15/08:30am 27.3 31.2 22.9 77 3.0 ENE 7 9 4 5 1011.8 - 0.8
15/08:00am 26.8 32.0 22.8 79 2.7 CALM 0 0 0 0 1011.5 - 0.8
15/07:30am 26.1 31.8 23.8 87 1.6 CALM 0 0 0 0 1011.2 - 0.8
15/07:00am 25.9 31.4 23.4 86 1.7 CALM 0 0 0 0 1010.7 - 0.8
15/06:30am 25.8 30.1 23.3 86 1.7 S 6 7 3 4 1010.4 - 0.8
15/06:00am 26.1 31.7 23.6 86 1.7 CALM 0 0 0 0 1010.1 1009.9 0.8
15/05:30am 26.2 31.8 23.5 85 1.8 CALM 0 0 0 0 1009.9 - 0.8
15/05:00am 26.2 30.6 23.5 85 1.8 WNW 6 6 3 3 1009.7 - 0.8
15/04:30am 26.2 31.0 22.9 82 2.2 S 2 6 1 3 1009.6 - 0.8
15/04:00am 26.3 30.9 23.2 83 2.1 SW 4 6 2 3 1009.6 - 0.8
15/03:30am 26.3 30.2 23.0 82 2.2 SSW 7 9 4 5 1009.5 - 0.8
15/03:00am 26.7 29.8 21.5 73 3.5 S 7 9 4 5 1009.6 1009.4 0.8
15/02:30am 27.2 30.5 21.5 71 3.8 SE 6 9 3 5 1009.7 - 0.8
15/02:00am 27.2 31.7 21.5 71 3.8 CALM 0 0 0 0 1009.6 - 0.8
15/01:30am 27.2 30.2 21.2 69 4.0 E 7 9 4 5 1009.7 - 0.8
15/01:00am 27.2 30.4 21.7 72 3.7 E 7 11 4 6 1009.9 - 0.8
15/12:30am 27.4 30.1 21.4 70 4.0 E 9 13 5 7 1010.3 - 0.8
15/12:00am 27.5 30.4 21.8 71 3.8 E 9 11 5 6 1010.4 1010.2 0.8
 
Date/Time
CST
Temp
°C
App
Temp
°C
Dew
Point
Rel
Hum
%
Delta-T
°C
Wind Press
QNH
hPa
Press
MSL
hPa
Rain
since 9 am
mm
Dir
 
Spd
km/h
Gust
km/h
Spd
kts
Gust
kts
14/11:30pm 27.6 30.6 21.9 71 3.8 E 9 11 5 6 1010.6 - 0.8
14/11:00pm 27.7 30.7 22.0 71 3.8 E 9 13 5 7 1010.6 - 0.8
14/10:30pm 27.8 30.2 22.3 72 3.7 E 13 17 7 9 1010.8 - 0.8
14/10:00pm 27.9 30.8 22.4 72 3.7 E 11 15 6 8 1011.0 - 0.8
14/09:30pm 28.0 31.1 22.2 70 3.9 ESE 9 13 5 7 1011.0 - 0.8

Other Formats:

Comma delimited format used in spreadsheet applications
http://www.bom.gov.au/fwo/IDD60801/IDD60801.94137.axf

JavaScript Object Notation format (JSON) in row-major order
http://www.bom.gov.au/fwo/IDD60801/IDD60801.94137.json